Terminal Aerodrome Forecast
Issued by NWS

Home | Current Version | Previous Version | Graphics & Text | Print | Product List | Glossary On
Versions: 1 2 3 4 5 6 7 8 9 10 11 12 13 14 15 16
000
FTUS43 KABR 012337
TAFATY
TAF
KATY 012337Z 0200/0224 23014KT P6SM SCT060
     FM020100 25010KT P6SM VCTS SCT050CB
     FM020300 29006KT P6SM SKC
     FM021600 34014KT P6SM SKC=

USA.gov is the U.S. government's official web portal to all federal, state and local government web resources and services.